createdAt,value
2022-09-10T00:03:46.133Z,3.67
2022-09-10T00:06:13.170Z,5.25
2022-09-10T00:08:40.160Z,4.40
2022-09-10T00:11:11.283Z,4.57
2022-09-10T00:13:39.424Z,4.65
2022-09-10T00:16:09.058Z,3.80
2022-09-10T00:18:36.661Z,4.80
2022-09-10T00:21:07.913Z,4.72
2022-09-10T00:23:35.001Z,5.32
2022-09-10T00:26:14.967Z,5.72
2022-09-10T00:28:43.169Z,4.97
2022-09-10T00:31:11.019Z,5.60
2022-09-10T00:33:37.908Z,4.90
2022-09-10T00:36:14.135Z,4.93
2022-09-10T00:38:40.893Z,6.07
2022-09-10T00:41:08.726Z,5.22
2022-09-10T00:43:57.123Z,5.53
2022-09-10T00:46:30.010Z,4.40
2022-09-10T00:48:59.375Z,6.93
2022-09-10T00:51:30.968Z,5.18
2022-09-10T00:53:58.938Z,5.30
2022-09-10T00:56:26.188Z,5.22
2022-09-10T00:58:53.308Z,5.68
2022-09-10T01:01:20.164Z,5.82
2022-09-10T01:03:47.481Z,6.30
2022-09-10T01:06:14.483Z,6.05
2022-09-10T01:08:41.426Z,6.05
2022-09-10T01:11:26.641Z,5.40
2022-09-10T01:14:05.375Z,6.72
2022-09-10T01:16:45.291Z,6.32
2022-09-10T01:19:38.201Z,5.88
2022-09-10T01:22:16.379Z,6.90
2022-09-10T01:25:28.401Z,6.00
2022-09-10T01:27:58.336Z,6.55
2022-09-10T01:30:32.240Z,5.50
2022-09-10T01:33:03.036Z,5.10
2022-09-10T01:35:36.965Z,5.68
2022-09-10T01:38:09.458Z,5.00
2022-09-10T01:40:38.264Z,3.88
2022-09-10T01:43:09.857Z,5.78
2022-09-10T01:46:03.300Z,5.28
2022-09-10T01:48:51.412Z,4.97
2022-09-10T01:51:45.241Z,4.88
2022-09-10T01:54:40.568Z,5.13
2022-09-10T01:57:28.114Z,4.30
2022-09-10T02:00:00.640Z,4.25
2022-09-10T02:02:37.123Z,5.13
2022-09-10T02:05:06.384Z,4.28
2022-09-10T02:07:35.851Z,6.18
2022-09-10T02:10:05.821Z,6.20
2022-09-10T02:12:33.249Z,5.30
2022-09-10T02:15:00.156Z,5.88
2022-09-10T02:17:33.735Z,4.95
2022-09-10T02:20:04.516Z,5.72
2022-09-10T02:22:36.210Z,5.00
2022-09-10T02:25:04.233Z,4.80
2022-09-10T02:27:31.318Z,4.55
2022-09-10T02:29:58.253Z,4.93
2022-09-10T02:32:25.272Z,6.07
2022-09-10T02:34:52.064Z,6.05
2022-09-10T02:37:20.215Z,6.55
2022-09-10T02:39:47.031Z,6.30
2022-09-10T02:42:17.027Z,6.68
2022-09-10T02:44:44.944Z,6.75
2022-09-10T02:47:11.832Z,6.50
2022-09-10T02:49:38.624Z,6.28
2022-09-10T02:52:06.502Z,6.95
2022-09-10T02:54:33.349Z,4.93
2022-09-10T02:57:00.267Z,5.43
2022-09-10T02:59:27.031Z,6.63
2022-09-10T03:01:54.732Z,5.05
2022-09-10T03:04:21.707Z,6.25
2022-09-10T03:06:49.505Z,6.93
2022-09-10T03:09:17.232Z,7.03
2022-09-10T03:11:43.993Z,6.05
2022-09-10T03:14:12.172Z,6.85
2022-09-10T03:16:40.194Z,7.03
2022-09-10T03:19:07.033Z,8.05
2022-09-10T03:21:35.075Z,7.22
2022-09-10T03:24:03.905Z,7.20
2022-09-10T03:26:31.968Z,6.60
2022-09-10T03:28:58.963Z,7.22
2022-09-10T03:31:27.328Z,7.80
2022-09-10T03:33:54.152Z,8.35
2022-09-10T03:36:22.812Z,7.95
2022-09-10T03:38:49.666Z,7.93
2022-09-10T03:41:16.403Z,7.82
2022-09-10T03:43:43.140Z,7.40
2022-09-10T03:46:11.988Z,7.00
2022-09-10T03:48:39.679Z,7.65
2022-09-10T03:51:06.710Z,7.50
2022-09-10T03:53:33.607Z,7.05
2022-09-10T03:56:00.439Z,7.38
2022-09-10T03:58:27.862Z,8.77
2022-09-10T04:00:54.783Z,7.13
2022-09-10T04:03:21.691Z,6.03
2022-09-10T04:05:48.672Z,5.28
2022-09-10T04:08:16.038Z,8.13
2022-09-10T04:10:44.408Z,6.90
2022-09-10T04:13:11.612Z,7.82
2022-09-10T04:15:39.392Z,8.60
2022-09-10T04:18:07.309Z,7.03
2022-09-10T04:20:34.731Z,7.10
2022-09-10T04:23:01.663Z,6.65
2022-09-10T04:25:28.402Z,6.32
2022-09-10T04:27:55.289Z,8.30
2022-09-10T04:30:30.538Z,7.68
2022-09-10T04:32:57.615Z,7.43
2022-09-10T04:35:24.389Z,7.10
2022-09-10T04:37:51.130Z,8.32
2022-09-10T04:40:18.055Z,8.63
2022-09-10T04:42:44.904Z,7.65
2022-09-10T04:45:11.638Z,6.82
2022-09-10T04:47:38.426Z,7.18
2022-09-10T04:50:06.476Z,8.05
2022-09-10T04:52:33.636Z,7.30
2022-09-10T04:55:00.408Z,7.97
2022-09-10T04:57:28.039Z,7.07
2022-09-10T04:59:55.672Z,6.88
2022-09-10T05:02:22.596Z,8.63
2022-09-10T05:04:50.740Z,6.50
2022-09-10T05:07:19.027Z,7.38
2022-09-10T05:09:45.843Z,6.80
2022-09-10T05:12:12.582Z,7.15
2022-09-10T05:14:39.340Z,8.02
2022-09-10T05:17:06.076Z,6.60
2022-09-10T05:19:32.865Z,6.85
2022-09-10T05:21:59.837Z,7.53
2022-09-10T05:24:27.404Z,8.45
2022-09-10T05:26:54.179Z,6.85
2022-09-10T05:29:22.097Z,7.43
2022-09-10T05:31:49.032Z,6.82
2022-09-10T05:34:15.888Z,7.05
2022-09-10T05:36:42.685Z,6.93
2022-09-10T05:39:09.655Z,7.07
2022-09-10T05:41:37.694Z,6.72
2022-09-10T05:44:05.276Z,7.35
2022-09-10T05:46:33.266Z,7.22
2022-09-10T05:49:00.121Z,6.60
2022-09-10T05:51:30.848Z,6.85
2022-09-10T05:53:57.975Z,6.22
2022-09-10T05:56:27.680Z,7.30
2022-09-10T05:58:54.502Z,6.53
2022-09-10T06:01:21.345Z,7.90
2022-09-10T06:03:48.621Z,6.25
2022-09-10T06:06:15.408Z,7.80
2022-09-10T06:08:42.343Z,8.52
2022-09-10T06:11:10.548Z,6.50
2022-09-10T06:13:39.759Z,6.95
2022-09-10T06:16:07.425Z,6.20
2022-09-10T06:18:34.257Z,7.32
2022-09-10T06:21:06.802Z,7.22
2022-09-10T06:23:34.042Z,6.82
2022-09-10T06:26:09.899Z,6.38
2022-09-10T06:28:36.890Z,7.20
2022-09-10T06:31:08.055Z,6.95
2022-09-10T06:33:35.302Z,6.57
2022-09-10T06:36:03.356Z,6.18
2022-09-10T06:38:33.534Z,5.97
2022-09-10T06:41:02.610Z,8.50
2022-09-10T06:43:34.244Z,5.25
2022-09-10T06:46:01.112Z,5.28
2022-09-10T06:48:47.853Z,7.10
2022-09-10T06:51:16.305Z,7.50
2022-09-10T06:53:46.515Z,6.40
2022-09-10T06:56:15.129Z,7.75
2022-09-10T06:58:42.085Z,6.40
2022-09-10T07:01:12.018Z,6.20
2022-09-10T07:03:38.891Z,6.13
2022-09-10T07:06:08.052Z,7.03
2022-09-10T07:08:34.887Z,7.10
2022-09-10T07:11:04.819Z,6.03
2022-09-10T07:13:32.327Z,6.38
2022-09-10T07:15:59.109Z,6.72
2022-09-10T07:18:26.784Z,5.68
2022-09-10T07:20:53.619Z,6.47
2022-09-10T07:23:21.894Z,6.95
2022-09-10T07:25:49.265Z,6.80
2022-09-10T07:28:18.289Z,7.32
2022-09-10T07:30:45.483Z,7.43
2022-09-10T07:33:12.344Z,8.20
2022-09-10T07:35:39.506Z,8.13
2022-09-10T07:38:10.484Z,7.22
2022-09-10T07:40:37.342Z,8.32
2022-09-10T07:43:04.021Z,7.68
2022-09-10T07:45:31.005Z,7.07
2022-09-10T07:47:57.782Z,8.00
2022-09-10T07:50:24.641Z,8.95
2022-09-10T07:52:55.101Z,7.13
2022-09-10T07:55:23.318Z,8.20
2022-09-10T07:57:50.068Z,7.00
2022-09-10T08:00:18.614Z,7.35
2022-09-10T08:02:45.627Z,8.00
2022-09-10T08:05:13.670Z,7.97
2022-09-10T08:07:41.519Z,6.72
2022-09-10T08:10:10.613Z,7.53
2022-09-10T08:12:38.193Z,7.43
2022-09-10T08:15:08.772Z,6.88
2022-09-10T08:17:38.488Z,6.68
2022-09-10T08:20:07.880Z,7.75
2022-09-10T08:22:35.680Z,7.07
2022-09-10T08:25:02.942Z,7.70
2022-09-10T08:27:29.891Z,8.65
2022-09-10T08:29:57.714Z,6.78
2022-09-10T08:32:24.963Z,6.72
2022-09-10T08:34:52.556Z,6.53
2022-09-10T08:37:19.400Z,7.03
2022-09-10T08:39:46.162Z,6.88
2022-09-10T08:42:24.666Z,5.88
2022-09-10T08:44:58.053Z,6.53
2022-09-10T08:47:44.730Z,5.88
2022-09-10T08:50:26.317Z,6.35
2022-09-10T08:53:31.471Z,6.97
2022-09-10T08:56:08.572Z,5.38
2022-09-10T08:58:59.357Z,8.05
2022-09-10T09:01:31.557Z,6.38
2022-09-10T09:04:01.633Z,6.40
2022-09-10T09:06:39.536Z,5.20
2022-09-10T09:09:06.356Z,6.30
2022-09-10T09:12:00.667Z,6.18
2022-09-10T09:15:00.011Z,6.20
2022-09-10T09:17:44.915Z,7.43
2022-09-10T09:20:31.143Z,7.35
2022-09-10T09:23:19.805Z,7.88
2022-09-10T09:25:58.920Z,6.75
2022-09-10T09:28:40.916Z,6.57
2022-09-10T09:31:28.582Z,5.57
2022-09-10T09:34:01.028Z,6.97
2022-09-10T09:39:03.870Z,5.15
2022-09-10T09:41:55.563Z,6.15
2022-09-10T09:44:40.759Z,5.88
2022-09-10T09:47:09.144Z,5.55
2022-09-10T09:49:36.013Z,5.80
2022-09-10T09:52:16.728Z,5.45
2022-09-10T09:55:13.020Z,5.45
2022-09-10T09:57:35.572Z,6.07
2022-09-10T10:00:36.490Z,5.38
2022-09-10T10:03:14.121Z,4.53
2022-09-10T10:05:42.383Z,5.75
2022-09-10T10:08:31.038Z,4.68
2022-09-10T10:10:58.538Z,4.70
2022-09-10T10:13:25.514Z,4.75
2022-09-10T10:15:54.195Z,4.55
2022-09-10T10:18:33.947Z,3.85
2022-09-10T10:21:14.543Z,3.28
2022-09-10T10:23:41.748Z,3.50
2022-09-10T10:26:20.862Z,4.07
2022-09-10T10:28:48.517Z,3.63
2022-09-10T10:31:16.214Z,4.28
2022-09-10T10:34:15.164Z,3.97
2022-09-10T10:36:53.256Z,3.20
2022-09-10T10:39:41.088Z,3.20
2022-09-10T10:42:38.613Z,3.13
2022-09-10T10:45:40.511Z,3.08
2022-09-10T10:48:31.809Z,2.65
2022-09-10T10:51:32.084Z,3.05
2022-09-10T10:54:23.873Z,2.58
2022-09-10T10:57:12.903Z,2.50
2022-09-10T11:00:06.454Z,2.40
2022-09-10T11:03:01.540Z,2.03
2022-09-10T11:05:38.600Z,2.33
2022-09-10T11:08:32.453Z,1.88
2022-09-10T11:11:13.808Z,2.08
2022-09-10T11:13:51.607Z,1.65
2022-09-10T11:16:42.009Z,1.75
2022-09-10T11:19:25.485Z,2.47
2022-09-10T11:22:01.509Z,1.80
2022-09-10T11:24:41.392Z,2.03
2022-09-10T11:27:17.357Z,1.60
2022-09-10T11:30:04.223Z,2.08
2022-09-10T11:32:36.123Z,2.05
2022-09-10T11:35:31.465Z,1.73
2022-09-10T11:38:11.561Z,1.48
2022-09-10T11:41:09.161Z,3.58
2022-09-10T11:44:01.939Z,1.95
2022-09-10T11:49:14.120Z,2.15
2022-09-10T11:51:41.768Z,1.58
2022-09-10T11:54:16.407Z,1.50
2022-09-10T11:57:06.907Z,1.88
2022-09-10T11:59:45.895Z,1.20
2022-09-10T12:02:27.589Z,1.80
2022-09-10T12:04:58.726Z,1.70
2022-09-10T12:07:51.519Z,1.67
2022-09-10T12:12:50.265Z,1.98
2022-09-10T12:15:24.390Z,1.98
2022-09-10T12:18:01.004Z,2.22
2022-09-10T12:20:35.495Z,1.75
2022-09-10T12:23:02.852Z,2.50
2022-09-10T12:25:34.799Z,2.67
2022-09-10T12:28:07.877Z,1.85
2022-09-10T12:30:37.932Z,2.33
2022-09-10T12:33:13.608Z,1.88
2022-09-10T12:35:50.713Z,1.92
2022-09-10T12:38:54.640Z,1.98
2022-09-10T12:41:21.310Z,1.90
2022-09-10T12:43:48.250Z,2.00
2022-09-10T12:46:15.061Z,2.33
2022-09-10T12:48:44.964Z,1.80
2022-09-10T12:51:20.617Z,1.80
2022-09-10T12:54:47.069Z,1.83
2022-09-10T12:57:32.241Z,1.60
2022-09-10T13:00:27.127Z,1.88
2022-09-10T13:03:17.767Z,1.98
2022-09-10T13:05:44.441Z,1.40
2022-09-10T13:08:20.530Z,2.22
2022-09-10T13:11:07.560Z,2.00
2022-09-10T13:13:59.874Z,2.10
2022-09-10T13:16:26.575Z,2.25
2022-09-10T13:19:14.255Z,2.03
2022-09-10T13:21:40.943Z,2.25
2022-09-10T13:24:38.663Z,2.28
2022-09-10T13:27:17.340Z,1.73
2022-09-10T13:29:52.845Z,2.05
2022-09-10T13:32:28.484Z,2.00
2022-09-10T13:35:19.942Z,1.80
2022-09-10T13:38:07.877Z,2.08
2022-09-10T13:40:40.893Z,1.88
2022-09-10T13:43:29.220Z,1.95
2022-09-10T13:46:04.947Z,2.13
2022-09-10T13:48:49.358Z,1.35
2022-09-10T13:51:24.183Z,1.60
2022-09-10T13:53:52.988Z,1.73
2022-09-10T13:56:29.225Z,1.23
2022-09-10T13:59:04.760Z,2.10
2022-09-10T14:01:55.580Z,1.60
2022-09-10T14:04:23.752Z,1.95
2022-09-10T14:06:50.897Z,2.00
2022-09-10T14:09:17.671Z,1.73
2022-09-10T14:11:44.769Z,1.48
2022-09-10T14:14:20.853Z,1.55
2022-09-10T14:17:23.112Z,1.60
2022-09-10T14:19:58.004Z,1.40
2022-09-10T14:22:26.485Z,1.50
2022-09-10T14:24:55.626Z,1.48
2022-09-10T14:27:28.426Z,2.05
2022-09-10T14:29:56.534Z,1.48
2022-09-10T14:32:35.008Z,1.60
2022-09-10T14:35:39.518Z,1.33
2022-09-10T14:38:26.580Z,1.65
2022-09-10T14:41:11.023Z,1.65
2022-09-10T14:43:40.317Z,1.40
2022-09-10T14:46:09.245Z,1.83
2022-09-10T14:49:01.412Z,1.70
2022-09-10T14:51:28.171Z,1.40
2022-09-10T14:53:56.998Z,1.38
2022-09-10T14:56:32.835Z,1.67
2022-09-10T14:59:23.805Z,1.50
2022-09-10T15:01:51.536Z,1.70
2022-09-10T15:04:23.683Z,1.55
2022-09-10T15:09:21.866Z,1.80
2022-09-10T15:11:57.247Z,1.67
2022-09-10T15:14:25.063Z,1.60
2022-09-10T15:16:52.264Z,1.65
2022-09-10T15:19:19.985Z,1.23
2022-09-10T15:21:47.346Z,1.92
2022-09-10T15:24:19.923Z,2.00
2022-09-10T15:26:47.232Z,1.38
2022-09-10T15:29:14.559Z,1.30
2022-09-10T15:31:42.364Z,2.00
2022-09-10T15:34:11.005Z,1.83
2022-09-10T15:36:39.846Z,1.17
2022-09-10T15:39:07.602Z,1.77
2022-09-10T15:41:34.525Z,1.58
2022-09-10T15:44:03.091Z,1.65
2022-09-10T15:46:30.526Z,2.00
2022-09-10T15:49:03.110Z,1.13
2022-09-10T15:51:30.417Z,1.35
2022-09-10T15:53:57.910Z,1.77
2022-09-10T15:56:27.028Z,2.13
2022-09-10T15:58:56.376Z,1.58
2022-09-10T16:01:25.052Z,1.75
2022-09-10T16:04:02.866Z,2.30
2022-09-10T16:06:33.338Z,1.38
2022-09-10T16:09:03.780Z,1.38
2022-09-10T16:11:32.486Z,2.05
2022-09-10T16:14:04.322Z,2.13
2022-09-10T16:19:00.595Z,1.52
2022-09-10T16:21:31.060Z,1.90
2022-09-10T16:23:59.326Z,2.15
2022-09-10T16:26:29.473Z,1.95
2022-09-10T16:28:58.548Z,1.98
2022-09-10T16:31:28.976Z,1.75
2022-09-10T16:33:58.846Z,2.00
2022-09-10T16:36:26.911Z,2.00
2022-09-10T16:38:55.366Z,1.88
2022-09-10T16:41:23.698Z,2.05
2022-09-10T16:43:51.592Z,1.90
2022-09-10T16:46:19.034Z,2.03
2022-09-10T16:48:46.027Z,1.65
2022-09-10T16:51:16.864Z,1.85
2022-09-10T16:53:48.018Z,2.30
2022-09-10T16:56:16.769Z,1.80
2022-09-10T16:58:48.510Z,1.58
2022-09-10T17:01:16.195Z,2.00
2022-09-10T17:03:46.692Z,2.28
2022-09-10T17:06:26.062Z,1.63
2022-09-10T17:08:58.383Z,2.17
2022-09-10T17:13:54.466Z,2.00
2022-09-10T17:16:21.241Z,2.00
2022-09-10T17:18:54.556Z,1.80
2022-09-10T17:21:21.537Z,2.45
2022-09-10T17:23:48.596Z,2.47
2022-09-10T17:26:15.348Z,1.90
2022-09-10T17:28:42.298Z,1.67
2022-09-10T17:31:09.317Z,2.00
2022-09-10T17:33:36.176Z,2.25
2022-09-10T17:36:04.058Z,2.22
2022-09-10T17:38:34.008Z,1.98
2022-09-10T17:41:04.633Z,1.92
2022-09-10T17:43:36.645Z,2.00
2022-09-10T17:46:07.695Z,1.58
2022-09-10T17:48:35.987Z,1.90
2022-09-10T17:51:02.885Z,1.20
2022-09-10T17:53:30.499Z,1.88
2022-09-10T17:56:03.821Z,1.95
2022-09-10T17:58:33.276Z,2.28
2022-09-10T18:01:03.360Z,1.48
2022-09-10T18:03:31.866Z,1.88
2022-09-10T18:06:10.509Z,1.55
2022-09-10T18:08:43.961Z,1.60
2022-09-10T18:11:16.533Z,1.17
2022-09-10T18:13:47.684Z,1.50
2022-09-10T18:16:16.986Z,1.80
2022-09-10T18:18:45.692Z,1.65
2022-09-10T18:21:19.456Z,1.60
2022-09-10T18:23:54.425Z,1.35
2022-09-10T18:26:23.896Z,1.10
2022-09-10T18:29:02.063Z,1.30
2022-09-10T18:31:34.888Z,2.17
2022-09-10T18:34:02.484Z,1.38
2022-09-10T18:36:31.591Z,1.70
2022-09-10T18:39:02.194Z,1.30
2022-09-10T18:41:33.931Z,2.22
2022-09-10T18:44:04.068Z,1.77
2022-09-10T18:46:32.352Z,1.52
2022-09-10T18:48:59.971Z,1.55
2022-09-10T18:51:28.534Z,1.67
2022-09-10T18:54:01.853Z,1.70
2022-09-10T18:56:31.993Z,1.80
2022-09-10T18:59:08.899Z,2.00
2022-09-10T19:01:37.848Z,2.15
2022-09-10T19:04:09.479Z,1.80
2022-09-10T19:06:42.483Z,1.60
2022-09-10T19:09:12.658Z,2.08
2022-09-10T19:11:41.624Z,1.92
2022-09-10T19:14:18.103Z,1.90
2022-09-10T19:16:46.941Z,1.88
2022-09-10T19:19:24.294Z,2.25
2022-09-10T19:21:53.260Z,10.40
2022-09-10T19:24:32.809Z,3.30
2022-09-10T19:27:07.658Z,3.10
2022-09-10T19:29:34.516Z,3.10
2022-09-10T19:32:02.299Z,3.30
2022-09-10T19:34:30.237Z,2.63
2022-09-10T19:36:56.986Z,2.60
2022-09-10T19:39:23.703Z,3.30
2022-09-10T19:41:50.691Z,3.17
2022-09-10T19:44:18.179Z,3.15
2022-09-10T19:46:45.501Z,3.25
2022-09-10T19:49:12.700Z,3.92
2022-09-10T19:51:40.691Z,3.20
2022-09-10T19:54:08.091Z,3.20
2022-09-10T19:56:37.686Z,2.42
2022-09-10T19:59:08.665Z,3.05
2022-09-10T20:01:41.257Z,3.10
2022-09-10T20:04:10.321Z,4.00
2022-09-10T20:06:37.964Z,3.72
2022-09-10T20:09:06.713Z,4.15
2022-09-10T20:11:35.177Z,3.20
2022-09-10T20:14:07.814Z,3.28
2022-09-10T20:16:39.540Z,4.38
2022-09-10T20:19:08.896Z,3.23
2022-09-10T20:21:37.157Z,4.20
2022-09-10T20:24:07.120Z,3.47
2022-09-10T20:26:38.015Z,3.65
2022-09-10T20:29:09.348Z,3.33
2022-09-10T20:31:37.127Z,2.75
2022-09-10T20:34:06.529Z,3.15
2022-09-10T20:36:38.269Z,2.58
2022-09-10T20:39:06.667Z,4.32
2022-09-10T20:41:33.863Z,3.35
2022-09-10T20:44:01.817Z,3.00
2022-09-10T20:46:31.338Z,2.53
2022-09-10T20:49:05.431Z,3.53
2022-09-10T20:51:38.800Z,3.40
2022-09-10T20:54:07.466Z,2.83
2022-09-10T20:56:34.472Z,4.05
2022-09-10T20:59:02.051Z,3.40
2022-09-10T21:01:32.879Z,3.10
2022-09-10T21:04:01.370Z,4.03
2022-09-10T21:06:31.270Z,3.25
2022-09-10T21:08:59.100Z,3.53
2022-09-10T21:11:29.224Z,3.45
2022-09-10T21:13:58.201Z,4.15
2022-09-10T21:16:30.088Z,4.72
2022-09-10T21:19:00.818Z,4.90
2022-09-10T21:21:30.788Z,4.97
2022-09-10T21:23:59.633Z,4.50
2022-09-10T21:26:28.837Z,4.53
2022-09-10T21:28:58.007Z,4.43
2022-09-10T21:31:27.321Z,4.47
2022-09-10T21:34:00.713Z,4.30
2022-09-10T21:36:30.664Z,4.28
2022-09-10T21:39:00.611Z,4.03
2022-09-10T21:41:32.999Z,4.22
2022-09-10T21:44:01.799Z,4.65
2022-09-10T21:46:30.241Z,4.38
2022-09-10T21:48:57.555Z,4.07
2022-09-10T21:51:25.413Z,4.50
2022-09-10T21:53:55.214Z,3.80
2022-09-10T21:56:24.320Z,4.07
2022-09-10T21:58:52.188Z,4.20
2022-09-10T22:01:23.413Z,4.25
2022-09-10T22:03:55.022Z,3.60
2022-09-10T22:06:30.087Z,3.95
2022-09-10T22:09:05.217Z,3.75
2022-09-10T22:11:41.775Z,3.15
2022-09-10T22:14:13.955Z,3.58
2022-09-10T22:16:41.449Z,3.63
2022-09-10T22:19:21.711Z,3.50
2022-09-10T22:21:48.946Z,3.28
2022-09-10T22:24:18.989Z,3.55
2022-09-10T22:26:47.334Z,2.80
2022-09-10T22:29:17.173Z,3.33
2022-09-10T22:31:44.312Z,3.25
2022-09-10T22:34:13.920Z,4.20
2022-09-10T22:36:43.041Z,4.72
2022-09-10T22:39:19.265Z,2.78
2022-09-10T22:41:47.281Z,4.00
2022-09-10T22:44:14.638Z,3.72
2022-09-10T22:46:41.672Z,4.45
2022-09-10T22:49:09.904Z,3.78
2022-09-10T22:51:40.981Z,3.70
2022-09-10T22:54:08.922Z,3.85
2022-09-10T22:56:36.285Z,3.50
2022-09-10T22:59:04.297Z,3.65
2022-09-10T23:01:35.470Z,4.20
2022-09-10T23:04:04.107Z,4.35
2022-09-10T23:06:34.584Z,4.35
2022-09-10T23:09:11.754Z,4.20
2022-09-10T23:11:39.962Z,3.30
2022-09-10T23:14:10.461Z,3.58
2022-09-10T23:16:39.855Z,3.53
2022-09-10T23:19:10.799Z,3.97
2022-09-10T23:21:41.661Z,3.95
2022-09-10T23:24:12.790Z,4.45
2022-09-10T23:26:39.936Z,4.25
2022-09-10T23:29:06.787Z,4.47
2022-09-10T23:31:36.793Z,4.45
2022-09-10T23:34:07.009Z,4.20
2022-09-10T23:36:39.605Z,4.03
2022-09-10T23:41:35.222Z,4.60
2022-09-10T23:44:02.207Z,3.75
2022-09-10T23:46:29.643Z,6.68
2022-09-10T23:48:56.983Z,4.22
2022-09-10T23:51:24.057Z,4.68
2022-09-10T23:53:50.797Z,4.68
2022-09-10T23:56:19.531Z,4.60
2022-09-10T23:58:47.729Z,4.55
